createdAt,value
2023-11-09T00:02:12.168Z,63.45
2023-11-09T00:04:39.074Z,63.23
2023-11-09T00:07:09.111Z,63.36
2023-11-09T00:09:35.943Z,63.58
2023-11-09T00:12:02.871Z,63.57
2023-11-09T00:14:29.559Z,63.60
2023-11-09T00:16:56.077Z,64.20
2023-11-09T00:19:23.065Z,64.42
2023-11-09T00:21:49.744Z,64.50
2023-11-09T00:24:18.018Z,62.87
2023-11-09T00:26:47.066Z,62.62
2023-11-09T00:29:13.801Z,63.85
2023-11-09T00:31:40.312Z,64.14
2023-11-09T00:34:07.667Z,64.76
2023-11-09T00:36:35.519Z,64.88
2023-11-09T00:39:02.051Z,64.30
2023-11-09T00:41:30.223Z,64.19
2023-11-09T00:43:57.368Z,64.78
2023-11-09T00:46:23.972Z,65.22
2023-11-09T00:48:50.982Z,64.73
2023-11-09T00:51:18.763Z,64.22
2023-11-09T00:53:45.565Z,63.82
2023-11-09T00:56:12.123Z,63.70
2023-11-09T00:58:40.222Z,63.01
2023-11-09T01:01:06.875Z,62.85
2023-11-09T01:03:33.428Z,63.81
2023-11-09T01:06:05.768Z,64.65
2023-11-09T01:08:32.329Z,64.57
2023-11-09T01:10:59.320Z,64.58
2023-11-09T01:13:25.846Z,64.36
2023-11-09T01:15:54.040Z,63.30
2023-11-09T01:18:20.762Z,64.04
2023-11-09T01:20:47.526Z,65.06
2023-11-09T01:23:14.643Z,65.26
2023-11-09T01:25:41.894Z,64.86
2023-11-09T01:28:08.667Z,65.05
2023-11-09T01:30:35.567Z,65.54
2023-11-09T01:33:05.813Z,65.78
2023-11-09T01:35:32.930Z,66.11
2023-11-09T01:37:59.575Z,66.02
2023-11-09T01:40:27.802Z,66.10
2023-11-09T01:42:57.246Z,66.26
2023-11-09T01:45:24.652Z,65.75
2023-11-09T01:47:51.899Z,65.10
2023-11-09T01:50:20.074Z,63.94
2023-11-09T01:52:46.897Z,63.76
2023-11-09T01:55:14.637Z,64.62
2023-11-09T01:57:42.096Z,65.20
2023-11-09T02:00:11.211Z,65.39
2023-11-09T02:02:41.518Z,65.50
2023-11-09T02:05:08.676Z,65.79
2023-11-09T02:07:38.325Z,66.17
2023-11-09T02:10:07.393Z,66.38
2023-11-09T02:12:34.213Z,66.13
2023-11-09T02:15:00.848Z,65.19
2023-11-09T02:17:27.651Z,64.60
2023-11-09T02:19:54.271Z,64.61
2023-11-09T02:22:22.920Z,64.85
2023-11-09T02:24:52.340Z,65.40
2023-11-09T02:27:19.042Z,66.05
2023-11-09T02:29:46.088Z,66.23
2023-11-09T02:32:12.793Z,65.77
2023-11-09T02:34:39.521Z,65.03
2023-11-09T02:37:07.221Z,65.40
2023-11-09T02:39:34.013Z,65.20
2023-11-09T02:42:02.360Z,65.90
2023-11-09T02:44:28.920Z,66.24
2023-11-09T02:46:55.523Z,66.19
2023-11-09T02:49:22.784Z,65.89
2023-11-09T02:51:49.379Z,66.09
2023-11-09T02:54:16.140Z,66.16
2023-11-09T02:56:43.112Z,66.60
2023-11-09T02:59:12.237Z,66.57
2023-11-09T03:01:40.621Z,66.52
2023-11-09T03:04:07.579Z,66.57
2023-11-09T03:06:34.374Z,66.66
2023-11-09T03:09:02.022Z,66.29
2023-11-09T03:11:28.894Z,66.33
2023-11-09T03:13:55.454Z,66.44
2023-11-09T03:16:24.586Z,66.52
2023-11-09T03:18:51.738Z,66.56
2023-11-09T03:21:18.533Z,66.32
2023-11-09T03:23:45.781Z,66.11
2023-11-09T03:26:12.518Z,66.11
2023-11-09T03:28:40.834Z,66.16
2023-11-09T03:31:07.633Z,65.67
2023-11-09T03:33:35.882Z,65.65
2023-11-09T03:36:02.737Z,64.79
2023-11-09T03:38:29.294Z,64.13
2023-11-09T03:40:55.992Z,64.26
2023-11-09T03:43:22.696Z,63.62
2023-11-09T03:45:49.666Z,63.73
2023-11-09T03:48:16.369Z,63.32
2023-11-09T03:50:45.428Z,63.74
2023-11-09T03:53:12.199Z,64.10
2023-11-09T03:55:38.791Z,64.03
2023-11-09T03:58:05.783Z,63.95
2023-11-09T04:00:32.428Z,63.85
2023-11-09T04:02:59.234Z,63.47
2023-11-09T04:05:25.777Z,64.46
2023-11-09T04:07:53.990Z,65.43
2023-11-09T04:10:20.767Z,65.61
2023-11-09T04:12:47.970Z,66.03
2023-11-09T04:15:15.949Z,66.37
2023-11-09T04:17:42.691Z,66.88
2023-11-09T04:20:09.825Z,66.93
2023-11-09T04:22:36.560Z,67.02
2023-11-09T04:25:05.618Z,66.96
2023-11-09T04:27:35.832Z,67.13
2023-11-09T04:30:02.698Z,66.93
2023-11-09T04:32:29.601Z,66.94
2023-11-09T04:34:56.878Z,66.83
2023-11-09T04:37:23.569Z,66.82
2023-11-09T04:39:53.610Z,67.13
2023-11-09T04:42:25.237Z,66.01
2023-11-09T04:44:58.358Z,66.69
2023-11-09T04:47:26.655Z,66.93
2023-11-09T04:50:05.007Z,66.71
2023-11-09T04:52:32.881Z,66.31
2023-11-09T04:55:11.994Z,66.26
2023-11-09T04:57:59.776Z,66.42
2023-11-09T05:00:44.947Z,66.00
2023-11-09T05:03:30.593Z,66.11
2023-11-09T05:06:16.074Z,66.03
2023-11-09T05:08:43.221Z,65.96
2023-11-09T05:11:15.084Z,65.50
2023-11-09T05:13:43.196Z,64.91
2023-11-09T05:16:10.061Z,64.79
2023-11-09T05:18:39.614Z,64.67
2023-11-09T05:21:07.269Z,65.45
2023-11-09T05:23:33.829Z,65.86
2023-11-09T05:26:01.595Z,66.74
2023-11-09T05:28:28.958Z,65.93
2023-11-09T05:30:57.072Z,65.51
2023-11-09T05:33:24.525Z,65.13
2023-11-09T05:35:51.428Z,65.19
2023-11-09T05:38:18.034Z,65.27
2023-11-09T05:40:45.201Z,65.51
2023-11-09T05:43:12.763Z,65.90
2023-11-09T05:45:39.650Z,66.15
2023-11-09T05:48:08.024Z,66.60
2023-11-09T05:50:35.138Z,66.44
2023-11-09T05:53:03.220Z,66.79
2023-11-09T05:55:31.838Z,66.43
2023-11-09T05:58:01.433Z,65.29
2023-11-09T06:00:28.799Z,65.29
2023-11-09T06:02:55.650Z,65.48
2023-11-09T06:05:26.168Z,66.04
2023-11-09T06:07:57.411Z,66.28
2023-11-09T06:10:24.544Z,66.54
2023-11-09T06:12:51.634Z,66.39
2023-11-09T06:15:18.429Z,66.64
2023-11-09T06:17:45.603Z,67.20
2023-11-09T06:20:14.399Z,67.36
2023-11-09T06:22:42.448Z,67.13
2023-11-09T06:25:09.710Z,66.85
2023-11-09T06:27:37.071Z,67.00
2023-11-09T06:30:05.121Z,67.17
2023-11-09T06:32:32.120Z,67.16
2023-11-09T06:35:00.429Z,66.67
2023-11-09T06:37:27.862Z,66.68
2023-11-09T06:39:59.469Z,66.95
2023-11-09T06:42:26.315Z,66.83
2023-11-09T06:44:55.088Z,66.45
2023-11-09T06:47:21.662Z,66.26
2023-11-09T06:49:48.458Z,66.33
2023-11-09T06:52:14.965Z,65.91
2023-11-09T06:54:41.819Z,65.04
2023-11-09T06:57:12.702Z,64.89
2023-11-09T06:59:40.280Z,63.98
2023-11-09T07:02:08.018Z,63.66
2023-11-09T07:04:34.827Z,63.52
2023-11-09T07:07:01.655Z,63.93
2023-11-09T07:09:28.558Z,64.01
2023-11-09T07:11:55.174Z,64.07
2023-11-09T07:14:24.549Z,64.08
2023-11-09T07:16:51.376Z,64.63
2023-11-09T07:19:18.114Z,64.86
2023-11-09T07:21:44.947Z,65.38
2023-11-09T07:24:13.948Z,65.64
2023-11-09T07:26:40.847Z,65.62
2023-11-09T07:29:07.415Z,65.53
2023-11-09T07:31:36.015Z,65.60
2023-11-09T07:34:03.395Z,65.46
2023-11-09T07:36:30.073Z,64.40
2023-11-09T07:38:59.901Z,64.13
2023-11-09T07:41:28.024Z,63.81
2023-11-09T07:43:54.734Z,63.76
2023-11-09T07:46:21.329Z,63.66
2023-11-09T07:48:49.740Z,63.33
2023-11-09T07:51:16.508Z,62.98
2023-11-09T07:53:43.142Z,62.66
2023-11-09T07:56:12.199Z,61.96
2023-11-09T07:58:39.768Z,61.97
2023-11-09T08:01:08.224Z,61.57
2023-11-09T08:03:35.278Z,61.85
2023-11-09T08:06:03.714Z,61.43
2023-11-09T08:08:31.694Z,61.72
2023-11-09T08:10:59.456Z,61.46
2023-11-09T08:13:28.050Z,61.80
2023-11-09T08:15:55.785Z,60.67
2023-11-09T08:18:22.585Z,60.23
2023-11-09T08:20:49.193Z,60.69
2023-11-09T08:23:17.706Z,60.13
2023-11-09T08:25:44.446Z,59.91
2023-11-09T08:28:11.220Z,60.51
2023-11-09T08:30:38.622Z,60.38
2023-11-09T08:33:09.850Z,59.76
2023-11-09T08:35:36.492Z,59.87
2023-11-09T08:38:03.102Z,58.94
2023-11-09T08:40:31.353Z,58.54
2023-11-09T08:42:58.746Z,58.56
2023-11-09T08:45:28.941Z,58.41
2023-11-09T08:47:55.789Z,57.61
2023-11-09T08:50:22.779Z,58.08
2023-11-09T08:52:49.777Z,57.68
2023-11-09T08:55:18.252Z,57.37
2023-11-09T08:57:46.378Z,57.10
2023-11-09T09:00:13.938Z,56.63
2023-11-09T09:02:50.525Z,56.08
2023-11-09T09:05:19.461Z,54.54
2023-11-09T09:07:46.911Z,53.37
2023-11-09T09:10:17.098Z,53.67
2023-11-09T09:12:45.586Z,53.69
2023-11-09T09:15:14.524Z,54.27
2023-11-09T09:17:44.177Z,54.48
2023-11-09T09:20:14.425Z,54.34
2023-11-09T09:22:41.180Z,51.99
2023-11-09T09:25:11.660Z,50.83
2023-11-09T09:27:44.396Z,48.28
2023-11-09T09:30:11.950Z,49.40
2023-11-09T09:32:40.006Z,48.40
2023-11-09T09:35:11.428Z,49.26
2023-11-09T09:37:39.016Z,49.02
2023-11-09T09:40:18.648Z,49.20
2023-11-09T09:42:47.234Z,49.32
2023-11-09T09:45:15.882Z,48.88
2023-11-09T09:47:50.061Z,48.72
2023-11-09T09:50:17.224Z,48.20
2023-11-09T09:52:47.936Z,48.47
2023-11-09T09:55:19.577Z,48.46
2023-11-09T09:57:46.485Z,48.08
2023-11-09T10:00:24.459Z,48.79
2023-11-09T10:02:53.593Z,47.97
2023-11-09T10:05:20.537Z,48.25
2023-11-09T10:08:00.824Z,48.88
2023-11-09T10:10:27.526Z,48.53
2023-11-09T10:12:56.661Z,48.35
2023-11-09T10:15:25.887Z,48.31
2023-11-09T10:17:54.158Z,48.43
2023-11-09T10:20:21.973Z,48.25
2023-11-09T10:22:48.957Z,47.50
2023-11-09T10:25:16.545Z,47.53
2023-11-09T10:27:43.971Z,47.73
2023-11-09T10:30:15.667Z,46.76
2023-11-09T10:32:44.151Z,46.22
2023-11-09T10:35:18.218Z,45.32
2023-11-09T10:37:45.197Z,46.00
2023-11-09T10:40:15.765Z,45.88
2023-11-09T10:42:51.841Z,44.17
2023-11-09T10:45:23.283Z,44.61
2023-11-09T10:47:54.112Z,43.78
2023-11-09T10:50:22.275Z,43.22
2023-11-09T10:52:51.350Z,42.86
2023-11-09T10:55:20.526Z,41.65
2023-11-09T10:57:49.725Z,41.55
2023-11-09T11:00:33.354Z,42.64
2023-11-09T11:03:05.216Z,43.31
2023-11-09T11:05:33.214Z,42.36
2023-11-09T11:08:03.059Z,42.12
2023-11-09T11:10:31.755Z,41.34
2023-11-09T11:13:04.926Z,41.62
2023-11-09T11:15:37.168Z,41.31
2023-11-09T11:18:11.107Z,40.46
2023-11-09T11:20:43.647Z,39.55
2023-11-09T11:23:18.264Z,40.44
2023-11-09T11:25:51.827Z,41.01
2023-11-09T11:28:19.884Z,42.18
2023-11-09T11:30:46.495Z,42.33
2023-11-09T11:33:14.378Z,42.58
2023-11-09T11:35:50.071Z,42.04
2023-11-09T11:38:23.798Z,42.14
2023-11-09T11:40:52.312Z,41.26
2023-11-09T11:43:18.933Z,42.10
2023-11-09T11:45:47.161Z,41.99
2023-11-09T11:48:20.919Z,42.58
2023-11-09T11:50:51.249Z,42.58
2023-11-09T11:53:29.288Z,42.84
2023-11-09T11:55:59.721Z,43.18
2023-11-09T11:58:29.426Z,43.09
2023-11-09T12:00:56.404Z,43.19
2023-11-09T12:03:25.325Z,43.06
2023-11-09T12:06:08.163Z,42.91
2023-11-09T12:08:41.670Z,42.77
2023-11-09T12:11:10.683Z,42.68
2023-11-09T12:13:37.448Z,43.07
2023-11-09T12:16:04.309Z,43.05
2023-11-09T12:18:30.909Z,43.11
2023-11-09T12:20:59.060Z,42.91
2023-11-09T12:23:26.142Z,42.35
2023-11-09T12:25:53.445Z,42.84
2023-11-09T12:28:20.889Z,42.84
2023-11-09T12:30:52.870Z,42.79
2023-11-09T12:33:20.639Z,42.73
2023-11-09T12:36:00.585Z,42.95
2023-11-09T12:38:27.527Z,42.79
2023-11-09T12:40:55.925Z,42.37
2023-11-09T12:43:33.454Z,42.20
2023-11-09T12:46:04.125Z,42.10
2023-11-09T12:48:37.760Z,41.90
2023-11-09T12:51:07.076Z,42.21
2023-11-09T12:53:36.684Z,41.95
2023-11-09T12:56:03.594Z,41.43
2023-11-09T12:58:36.474Z,41.65
2023-11-09T13:01:06.105Z,42.12
2023-11-09T13:03:32.924Z,42.57
2023-11-09T13:06:00.669Z,42.72
2023-11-09T13:08:28.923Z,42.66
2023-11-09T13:10:58.659Z,42.59
2023-11-09T13:13:27.602Z,42.91
2023-11-09T13:15:58.149Z,43.00
2023-11-09T13:18:29.330Z,42.81
2023-11-09T13:20:56.509Z,42.25
2023-11-09T13:23:40.503Z,41.95
2023-11-09T13:26:08.666Z,41.61
2023-11-09T13:28:35.330Z,41.27
2023-11-09T13:31:18.644Z,41.48
2023-11-09T13:33:46.899Z,41.88
2023-11-09T13:36:16.501Z,41.99
2023-11-09T13:39:12.810Z,42.18
2023-11-09T13:41:45.149Z,42.44
2023-11-09T13:44:14.011Z,41.83
2023-11-09T13:46:43.759Z,42.04
2023-11-09T13:49:23.051Z,41.95
2023-11-09T13:52:02.700Z,41.92
2023-11-09T13:54:40.052Z,41.98
2023-11-09T13:57:14.580Z,42.23
2023-11-09T13:59:44.340Z,42.24
2023-11-09T14:02:17.877Z,42.08
2023-11-09T14:04:48.168Z,42.29
2023-11-09T14:07:17.141Z,42.28
2023-11-09T14:09:44.271Z,42.84
2023-11-09T14:12:14.079Z,42.73
2023-11-09T14:14:48.057Z,43.00
2023-11-09T14:17:18.651Z,43.45
2023-11-09T14:19:54.638Z,43.71
2023-11-09T14:22:21.773Z,44.18
2023-11-09T14:24:52.607Z,44.38
2023-11-09T14:27:22.059Z,44.31
2023-11-09T14:29:49.869Z,44.27
2023-11-09T14:32:17.628Z,44.26
2023-11-09T14:34:45.139Z,44.69
2023-11-09T14:37:16.588Z,44.94
2023-11-09T14:39:46.120Z,45.08
2023-11-09T14:42:13.387Z,45.15
2023-11-09T14:44:42.669Z,45.52
2023-11-09T14:47:13.196Z,45.47
2023-11-09T14:49:41.855Z,45.23
2023-11-09T14:52:21.504Z,45.05
2023-11-09T14:54:48.658Z,45.25
2023-11-09T14:57:21.724Z,45.60
2023-11-09T14:59:49.688Z,45.65
2023-11-09T15:02:21.977Z,46.03
2023-11-09T15:04:54.709Z,46.51
2023-11-09T15:07:22.135Z,46.26
2023-11-09T15:09:53.358Z,46.04
2023-11-09T15:12:20.182Z,46.31
2023-11-09T15:14:47.482Z,46.20
2023-11-09T15:17:16.129Z,46.39
2023-11-09T15:19:43.432Z,46.65
2023-11-09T15:22:17.518Z,47.14
2023-11-09T15:24:44.742Z,47.11
2023-11-09T15:27:15.560Z,47.48
2023-11-09T15:29:45.318Z,47.25
2023-11-09T15:32:12.588Z,47.59
2023-11-09T15:34:44.286Z,47.47
2023-11-09T15:37:11.390Z,48.06
2023-11-09T15:40:07.051Z,48.28
2023-11-09T15:42:25.091Z,48.05
2023-11-09T15:44:51.624Z,48.32
2023-11-09T15:47:18.159Z,48.50
2023-11-09T15:49:48.322Z,48.75
2023-11-09T15:52:16.130Z,48.48
2023-11-09T16:03:41.352Z,49.45
2023-11-09T16:06:10.401Z,49.21
2023-11-09T16:08:37.163Z,49.02
2023-11-09T16:11:04.439Z,49.90
2023-11-09T16:13:31.035Z,49.90
2023-11-09T16:15:58.173Z,49.52
2023-11-09T16:18:26.653Z,49.97
2023-11-09T16:20:53.524Z,49.80
2023-11-09T16:23:22.034Z,50.09
2023-11-09T16:25:48.735Z,49.98
2023-11-09T16:28:21.724Z,50.26
2023-11-09T16:30:48.739Z,50.17
2023-11-09T16:33:15.918Z,50.45
2023-11-09T16:35:42.813Z,50.88
2023-11-09T16:38:12.742Z,51.30
2023-11-09T16:40:41.009Z,51.72
2023-11-09T16:43:09.879Z,51.85
2023-11-09T16:45:36.849Z,51.64
2023-11-09T16:48:05.605Z,52.06
2023-11-09T16:50:32.570Z,51.47
2023-11-09T16:52:59.183Z,51.76
2023-11-09T16:55:26.101Z,51.74
2023-11-09T16:57:54.123Z,52.10
2023-11-09T17:00:24.491Z,51.75
2023-11-09T17:02:51.765Z,52.54
2023-11-09T17:05:18.793Z,52.84
2023-11-09T17:07:46.957Z,52.77
2023-11-09T17:10:14.625Z,52.63
2023-11-09T17:12:42.006Z,52.93
2023-11-09T17:15:12.311Z,52.79
2023-11-09T17:17:40.657Z,52.61
2023-11-09T17:20:08.498Z,52.86
2023-11-09T17:22:35.445Z,52.90
2023-11-09T17:25:02.272Z,52.87
2023-11-09T17:27:28.969Z,52.20
2023-11-09T17:29:56.475Z,52.91
2023-11-09T17:32:24.792Z,52.46
2023-11-09T17:34:51.730Z,52.46
2023-11-09T17:37:18.778Z,51.99
2023-11-09T17:39:45.830Z,52.76
2023-11-09T17:42:12.840Z,52.69
2023-11-09T17:44:40.970Z,52.85
2023-11-09T17:47:08.398Z,52.99
2023-11-09T17:49:36.548Z,53.81
2023-11-09T17:52:03.893Z,53.74
2023-11-09T17:54:30.974Z,54.11
2023-11-09T17:56:59.885Z,54.67
2023-11-09T17:59:26.869Z,54.96
2023-11-09T18:01:54.318Z,55.30
2023-11-09T18:04:22.068Z,55.86
2023-11-09T18:06:50.708Z,55.76
2023-11-09T18:09:18.228Z,55.88
2023-11-09T18:11:46.865Z,55.79
2023-11-09T18:23:24.634Z,56.39
2023-11-09T18:25:52.716Z,56.53
2023-11-09T18:28:19.414Z,56.45
2023-11-09T18:30:47.172Z,57.50
2023-11-09T18:33:14.730Z,57.22
2023-11-09T18:38:41.604Z,57.71
2023-11-09T18:44:12.395Z,57.65
2023-11-09T19:32:48.582Z,58.75
2023-11-09T19:35:15.410Z,59.05
2023-11-09T19:49:56.619Z,59.47
2023-11-09T19:58:20.789Z,60.27
2023-11-09T20:00:53.492Z,60.45
2023-11-09T20:21:33.073Z,60.31
2023-11-09T20:23:59.834Z,60.15
2023-11-09T20:26:26.985Z,60.31
2023-11-09T20:48:07.477Z,61.49
2023-11-09T20:50:34.393Z,61.68
2023-11-09T20:53:01.561Z,61.43
2023-11-09T20:55:30.133Z,61.60
2023-11-09T20:57:58.325Z,61.51
2023-11-09T21:00:31.307Z,61.19
2023-11-09T21:02:58.016Z,61.13
2023-11-09T21:05:26.039Z,60.91
2023-11-09T21:07:54.247Z,60.42
2023-11-09T21:10:22.152Z,60.53
2023-11-09T21:12:48.771Z,60.08
2023-11-09T21:15:15.580Z,59.90
2023-11-09T21:17:44.565Z,60.45
2023-11-09T21:20:14.384Z,60.70
2023-11-09T21:22:42.343Z,61.04
2023-11-09T21:25:14.433Z,61.65
2023-11-09T21:27:41.954Z,60.91
2023-11-09T21:30:09.874Z,61.41
2023-11-09T21:32:37.059Z,61.14
2023-11-09T21:35:04.232Z,61.12
2023-11-09T21:37:32.913Z,61.21
2023-11-09T21:40:01.194Z,61.04
2023-11-09T21:42:27.814Z,60.84
2023-11-09T21:44:54.333Z,60.84
2023-11-09T21:47:21.285Z,60.92
2023-11-09T21:49:48.659Z,60.44
2023-11-09T21:52:15.641Z,60.67
2023-11-09T21:54:48.349Z,60.20
2023-11-09T21:57:16.498Z,59.71
2023-11-09T21:59:43.302Z,59.53
2023-11-09T22:08:02.422Z,59.53
2023-11-09T22:10:30.307Z,59.56
2023-11-09T22:12:58.551Z,59.25
2023-11-09T22:18:23.923Z,58.91
2023-11-09T22:23:53.431Z,58.36
2023-11-09T22:26:20.140Z,58.60
2023-11-09T22:28:48.267Z,59.03
2023-11-09T22:31:15.227Z,59.21
2023-11-09T22:33:41.894Z,58.69
2023-11-09T22:36:08.677Z,58.74
2023-11-09T22:38:35.238Z,58.55
2023-11-09T22:41:02.579Z,58.63
2023-11-09T22:43:29.238Z,59.24
2023-11-09T22:45:57.577Z,59.06
2023-11-09T22:48:24.245Z,60.18
2023-11-09T22:50:50.995Z,60.21
2023-11-09T22:53:17.644Z,60.49
2023-11-09T22:55:44.277Z,60.22
2023-11-09T22:58:11.026Z,60.13
2023-11-09T23:00:37.908Z,60.42
2023-11-09T23:03:07.497Z,60.45
2023-11-09T23:05:34.354Z,60.00
2023-11-09T23:08:00.869Z,60.08
2023-11-09T23:16:27.217Z,59.57
2023-11-09T23:18:55.194Z,59.54
2023-11-09T23:21:25.350Z,59.51
2023-11-09T23:23:53.984Z,59.72
2023-11-09T23:26:20.536Z,59.48
2023-11-09T23:35:04.926Z,59.39
2023-11-09T23:37:31.634Z,59.49
2023-11-09T23:40:04.097Z,59.86
2023-11-09T23:42:31.287Z,60.12
2023-11-09T23:44:57.860Z,60.23
2023-11-09T23:47:24.402Z,59.76
2023-11-09T23:49:51.146Z,60.03
2023-11-09T23:55:21.881Z,59.68
2023-11-09T23:57:48.605Z,59.75
